Terminal Aerodrome Forecast
Issued by NWS

Home | Current Version | Previous Version | Text Only | Print | Product List | Glossary On
Versions: 1 2 3 4 5 6 7 8 9 10 11 12 13 14 15 16 17 18
000
FTUS44 KMAF 221700 RRA
TAFHOB
TAF
KHOB 221742Z 2218/2318 28014G22KT P6SM SCT200
     FM230300 31012KT P6SM BKN200
     FM230700 35015G25KT P6SM OVC150
     FM231000 34020G30KT 5SM -SHRA BR SCT010 OVC020
      TEMPO 2311/2315 3SM -RASN BR SCT008 OVC015
     FM231500 35020G30KT 5SM BR SCT030 OVC050=

USA.gov is the U.S. government's official web portal to all federal, state and local government web resources and services.